Time,TemperatureF,DewpointF,PressureIn,WindDirection,WindDirectionDegrees,WindSpeedMPH,WindSpeedGustMPH,Humidity,HourlyPrecipIn,Conditions,Clouds,dailyrainin,SoftwareType,DateUTC
2013-12-04 00:01:00,69.2,66.1,30.02,SSE,160,0.0,0.0,90,0.00,,,0.00,Wunderground v.1.15,2013-12-04 05:01:00,
2013-12-04 00:02:00,69.2,66.1,30.02,SSE,159,0.0,0.0,90,0.00,,,0.00,Wunderground v.1.15,2013-12-04 05:02:00,
2013-12-04 00:03:00,69.2,66.1,30.01,SSE,159,0.0,0.0,90,0.00,,,0.00,Wunderground v.1.15,2013-12-04 05:03:00,
2013-12-04 00:04:00,69.2,66.1,30.02,SSE,160,0.0,0.0,90,0.00,,,0.00,Wunderground v.1.15,2013-12-04 05:04:00,
2013-12-04 00:09:00,69.0,65.9,30.02,SSE,159,0.0,0.0,90,0.00,,,0.00,Wunderground v.1.15,2013-12-04 05:09:00,
2013-12-04 00:12:00,69.0,66.3,30.02,SSE,159,0.0,0.0,91,0.00,,,0.00,Wunderground v.1.15,2013-12-04 05:12:00,
2013-12-04 00:17:00,68.9,66.2,30.01,SSE,159,0.0,0.0,91,0.00,,,0.00,Wunderground v.1.15,2013-12-04 05:17:00,
2013-12-04 00:23:00,68.8,66.1,30.02,SSE,159,0.0,0.0,91,0.00,,,0.00,Wunderground v.1.15,2013-12-04 05:23:00,
2013-12-04 00:24:00,68.8,66.1,30.02,SSE,159,0.0,0.0,91,0.00,,,0.00,Wunderground v.1.15,2013-12-04 05:24:00,
2013-12-04 00:29:00,68.8,66.1,30.02,SSE,159,0.0,0.0,91,0.00,,,0.00,Wunderground v.1.15,2013-12-04 05:29:00,
2013-12-04 00:35:00,69.2,66.8,30.02,SW,225,0.0,0.0,92,0.00,,,0.00,Wunderground v.1.15,2013-12-04 05:35:00,
2013-12-04 00:41:00,69.2,66.5,30.02,SW,225,0.0,0.0,91,0.00,,,0.00,Wunderground v.1.15,2013-12-04 05:41:00,
2013-12-04 00:46:00,69.2,66.5,30.02,SW,224,0.0,0.0,91,0.00,,,0.00,Wunderground v.1.15,2013-12-04 05:46:00,
2013-12-04 00:52:00,69.1,66.4,30.02,SW,224,0.0,0.0,91,0.00,,,0.00,Wunderground v.1.15,2013-12-04 05:52:00,
2013-12-04 00:57:00,69.1,66.4,30.02,SW,224,0.0,0.0,91,0.00,,,0.00,Wunderground v.1.15,2013-12-04 05:57:00,
2013-12-04 01:03:00,69.0,66.3,30.01,SSW,208,0.0,0.0,91,0.00,,,0.00,Wunderground v.1.15,2013-12-04 06:03:00,
2013-12-04 01:09:00,68.9,66.2,30.01,SSW,208,0.0,0.0,91,0.00,,,0.00,Wunderground v.1.15,2013-12-04 06:09:00,
2013-12-04 01:14:00,68.8,66.1,30.01,SSW,208,0.0,0.0,91,0.00,,,0.00,Wunderground v.1.15,2013-12-04 06:14:00,
2013-12-04 01:20:00,68.8,66.1,30.01,SSW,208,0.0,0.0,91,0.00,,,0.00,Wunderground v.1.15,2013-12-04 06:20:00,
2013-12-04 01:25:00,68.6,65.9,30.01,SSW,208,0.0,0.0,91,0.00,,,0.00,Wunderground v.1.15,2013-12-04 06:25:00,
2013-12-04 01:31:00,68.6,66.2,30.01,SSW,208,0.0,0.0,92,0.00,,,0.00,Wunderground v.1.15,2013-12-04 06:31:00,
2013-12-04 01:36:00,68.7,66.3,30.01,SSW,212,0.0,0.0,92,0.00,,,0.00,Wunderground v.1.15,2013-12-04 06:36:00,
2013-12-04 01:42:00,68.5,66.1,30.01,SSW,211,0.0,0.0,92,0.00,,,0.00,Wunderground v.1.15,2013-12-04 06:42:00,
2013-12-04 01:48:00,68.4,66.0,30.01,SSW,211,0.0,0.0,92,0.00,,,0.00,Wunderground v.1.15,2013-12-04 06:48:00,
2013-12-04 01:54:00,68.3,65.9,30.01,SSW,211,0.0,0.0,92,0.00,,,0.00,Wunderground v.1.15,2013-12-04 06:54:00,
2013-12-04 01:59:00,68.0,65.6,30.01,SSW,211,0.0,0.0,92,0.00,,,0.00,Wunderground v.1.15,2013-12-04 06:59:00,
2013-12-04 02:04:00,67.8,65.4,30.02,SSW,211,0.0,0.0,92,0.00,,,0.00,Wunderground v.1.15,2013-12-04 07:04:00,
2013-12-04 02:09:00,67.7,65.3,30.02,SSW,211,0.0,0.0,92,0.00,,,0.00,Wunderground v.1.15,2013-12-04 07:09:00,
2013-12-04 02:14:00,67.7,65.3,30.02,SSW,211,0.0,0.0,92,0.00,,,0.00,Wunderground v.1.15,2013-12-04 07:14:00,
2013-12-04 02:19:00,67.7,65.3,30.02,SSW,211,0.0,0.0,92,0.00,,,0.00,Wunderground v.1.15,2013-12-04 07:19:00,
2013-12-04 02:24:00,67.7,65.3,30.02,SSW,211,0.0,0.0,92,0.00,,,0.00,Wunderground v.1.15,2013-12-04 07:24:00,
2013-12-04 02:29:00,67.7,65.6,30.02,SSW,211,0.0,0.0,93,0.00,,,0.00,Wunderground v.1.15,2013-12-04 07:29:00,
2013-12-04 02:34:00,67.7,65.6,30.01,SSW,211,0.0,0.0,93,0.00,,,0.00,Wunderground v.1.15,2013-12-04 07:34:00,
2013-12-04 02:39:00,67.6,65.5,30.01,SSW,211,0.0,0.0,93,0.00,,,0.00,Wunderground v.1.15,2013-12-04 07:39:00,
2013-12-04 02:44:00,67.5,65.4,30.01,SSW,211,0.0,0.0,93,0.00,,,0.00,Wunderground v.1.15,2013-12-04 07:44:00,
2013-12-04 02:49:00,67.5,65.4,30.01,SSW,211,0.0,0.0,93,0.00,,,0.00,Wunderground v.1.15,2013-12-04 07:49:00,
2013-12-04 02:54:00,67.5,65.4,30.01,SSW,211,0.0,0.0,93,0.00,,,0.00,Wunderground v.1.15,2013-12-04 07:54:00,
2013-12-04 02:59:00,67.5,65.7,30.01,SSW,211,0.0,0.0,94,0.00,,,0.00,Wunderground v.1.15,2013-12-04 07:59:00,
2013-12-04 03:04:00,67.7,65.9,30.01,SSW,211,0.0,0.0,94,0.00,,,0.00,Wunderground v.1.15,2013-12-04 08:04:00,
2013-12-04 03:09:00,67.7,65.6,30.01,SSW,211,0.0,0.0,93,0.00,,,0.00,Wunderground v.1.15,2013-12-04 08:09:00,
2013-12-04 03:14:00,67.5,65.4,30.01,SSW,211,0.0,0.0,93,0.00,,,0.00,Wunderground v.1.15,2013-12-04 08:14:00,
2013-12-04 03:19:00,67.3,65.2,30.01,SSW,211,0.0,0.0,93,0.00,,,0.00,Wunderground v.1.15,2013-12-04 08:19:00,
2013-12-04 03:24:00,67.1,65.3,30.01,SSW,211,0.0,0.0,94,0.00,,,0.00,Wunderground v.1.15,2013-12-04 08:24:00,
2013-12-04 03:29:00,67.0,65.2,30.01,SSW,211,0.0,0.0,94,0.00,,,0.00,Wunderground v.1.15,2013-12-04 08:29:00,
2013-12-04 03:34:00,66.8,65.0,30.02,SSW,211,0.0,0.0,94,0.00,,,0.00,Wunderground v.1.15,2013-12-04 08:34:00,
2013-12-04 03:39:00,66.6,64.8,30.02,SSW,212,0.0,0.0,94,0.00,,,0.00,Wunderground v.1.15,2013-12-04 08:39:00,
2013-12-04 03:44:00,66.6,64.8,30.02,SSW,211,0.0,0.0,94,0.00,,,0.00,Wunderground v.1.15,2013-12-04 08:44:00,
2013-12-04 03:49:00,66.7,64.9,30.02,SSW,211,0.0,0.0,94,0.00,,,0.00,Wunderground v.1.15,2013-12-04 08:49:00,
2013-12-04 03:54:00,66.9,65.4,30.01,SSW,211,0.0,0.0,95,0.00,,,0.00,Wunderground v.1.15,2013-12-04 08:54:00,
2013-12-04 03:59:00,66.9,65.1,30.01,SSW,211,0.0,0.0,94,0.00,,,0.00,Wunderground v.1.15,2013-12-04 08:59:00,
2013-12-04 04:04:00,66.8,65.0,30.02,SSW,212,0.0,0.0,94,0.00,,,0.00,Wunderground v.1.15,2013-12-04 09:04:00,
2013-12-04 04:09:00,66.6,64.8,30.01,SSW,211,0.0,0.0,94,0.00,,,0.00,Wunderground v.1.15,2013-12-04 09:09:00,
2013-12-04 04:14:00,66.6,65.1,30.02,SSW,211,0.0,0.0,95,0.00,,,0.00,Wunderground v.1.15,2013-12-04 09:14:00,
2013-12-04 04:19:00,66.6,65.1,30.01,SSW,211,0.0,0.0,95,0.00,,,0.00,Wunderground v.1.15,2013-12-04 09:19:00,
2013-12-04 04:24:00,66.7,65.2,30.01,SSW,211,0.0,0.0,95,0.00,,,0.00,Wunderground v.1.15,2013-12-04 09:24:00,
2013-12-04 04:29:00,66.8,65.3,30.01,SSW,211,0.0,0.0,95,0.00,,,0.00,Wunderground v.1.15,2013-12-04 09:29:00,
2013-12-04 04:34:00,66.8,65.3,30.01,SSW,211,0.0,0.0,95,0.00,,,0.00,Wunderground v.1.15,2013-12-04 09:34:00,
2013-12-04 04:39:00,66.7,65.2,30.01,SSW,211,0.0,0.0,95,0.00,,,0.00,Wunderground v.1.15,2013-12-04 09:39:00,
2013-12-04 04:45:00,66.7,65.2,30.01,SSW,211,0.0,0.0,95,0.00,,,0.00,Wunderground v.1.15,2013-12-04 09:45:00,
2013-12-04 04:50:00,66.7,65.2,30.01,SSW,211,0.0,0.0,95,0.00,,,0.00,Wunderground v.1.15,2013-12-04 09:50:00,
2013-12-04 04:55:00,66.7,65.2,30.01,SSW,211,0.0,0.0,95,0.00,,,0.00,Wunderground v.1.15,2013-12-04 09:55:00,
2013-12-04 05:00:00,66.6,65.1,30.01,SSW,211,0.0,0.0,95,0.00,,,0.00,Wunderground v.1.15,2013-12-04 10:00:00,
2013-12-04 05:05:00,66.6,65.1,30.02,SSW,211,0.0,0.0,95,0.00,,,0.00,Wunderground v.1.15,2013-12-04 10:05:00,
2013-12-04 05:10:00,66.4,64.9,30.02,SSW,211,0.0,0.0,95,0.00,,,0.00,Wunderground v.1.15,2013-12-04 10:10:00,
2013-12-04 05:15:00,66.2,64.7,30.02,SSW,211,0.0,0.0,95,0.00,,,0.00,Wunderground v.1.15,2013-12-04 10:15:00,
2013-12-04 05:20:00,66.2,64.7,30.02,SSW,211,0.0,0.0,95,0.00,,,0.00,Wunderground v.1.15,2013-12-04 10:20:00,
2013-12-04 05:25:00,66.1,64.6,30.02,SSW,211,0.0,0.0,95,0.00,,,0.00,Wunderground v.1.15,2013-12-04 10:25:00,
2013-12-04 05:30:00,66.1,64.6,30.02,SSW,211,0.0,0.0,95,0.00,,,0.00,Wunderground v.1.15,2013-12-04 10:30:00,
2013-12-04 05:35:00,66.1,64.6,30.02,SSW,211,0.0,0.0,95,0.00,,,0.00,Wunderground v.1.15,2013-12-04 10:35:00,
2013-12-04 05:40:00,66.2,64.7,30.03,SSW,211,0.0,0.0,95,0.00,,,0.00,Wunderground v.1.15,2013-12-04 10:40:00,
2013-12-04 05:45:00,66.1,64.6,30.03,SSW,211,0.0,0.0,95,0.00,,,0.00,Wunderground v.1.15,2013-12-04 10:45:00,
2013-12-04 05:50:00,66.0,64.5,30.03,SSW,211,0.0,0.0,95,0.00,,,0.00,Wunderground v.1.15,2013-12-04 10:50:00,
2013-12-04 05:55:00,65.8,64.3,30.03,SSW,211,0.0,0.0,95,0.00,,,0.00,Wunderground v.1.15,2013-12-04 10:55:00,
2013-12-04 06:00:00,65.6,64.1,30.04,SSW,211,0.0,0.0,95,0.00,,,0.00,Wunderground v.1.15,2013-12-04 11:00:00,
2013-12-04 06:05:00,65.6,64.1,30.04,SSW,211,0.0,0.0,95,0.00,,,0.00,Wunderground v.1.15,2013-12-04 11:05:00,
2013-12-04 06:10:00,65.6,64.4,30.04,SSW,211,0.0,0.0,96,0.00,,,0.00,Wunderground v.1.15,2013-12-04 11:10:00,
2013-12-04 06:14:00,65.4,63.9,30.04,SSW,211,0.0,0.0,95,0.00,,,0.00,Wunderground v.1.15,2013-12-04 11:14:00,
2013-12-04 06:19:00,65.3,63.8,30.05,SSW,211,0.0,0.0,95,0.00,,,0.00,Wunderground v.1.15,2013-12-04 11:19:00,
2013-12-04 06:24:00,65.2,63.7,30.05,SSW,211,0.0,0.0,95,0.00,,,0.00,Wunderground v.1.15,2013-12-04 11:24:00,
2013-12-04 06:29:00,65.2,64.0,30.05,SSW,211,0.0,0.0,96,0.00,,,0.00,Wunderground v.1.15,2013-12-04 11:29:00,
2013-12-04 06:34:00,65.2,64.0,30.05,SSW,211,0.0,0.0,96,0.00,,,0.00,Wunderground v.1.15,2013-12-04 11:34:00,
2013-12-04 06:39:00,65.2,64.0,30.05,SSW,212,0.0,0.0,96,0.00,,,0.00,Wunderground v.1.15,2013-12-04 11:39:00,
2013-12-04 06:45:00,65.0,63.8,30.06,SSW,211,0.0,0.0,96,0.00,,,0.00,Wunderground v.1.15,2013-12-04 11:45:00,
2013-12-04 06:50:00,65.0,63.8,30.06,SSW,211,0.0,0.0,96,0.00,,,0.00,Wunderground v.1.15,2013-12-04 11:50:00,
2013-12-04 06:55:00,65.0,63.8,30.05,SSW,211,0.0,0.0,96,0.00,,,0.00,Wunderground v.1.15,2013-12-04 11:55:00,
2013-12-04 07:00:00,65.0,63.8,30.06,SSW,211,0.0,0.0,96,0.00,,,0.00,Wunderground v.1.15,2013-12-04 12:00:00,
2013-12-04 07:05:00,65.0,63.8,30.06,SSW,211,0.0,0.0,96,0.00,,,0.00,Wunderground v.1.15,2013-12-04 12:05:00,
2013-12-04 07:10:00,65.1,63.9,30.06,SSW,211,0.0,0.0,96,0.00,,,0.00,Wunderground v.1.15,2013-12-04 12:10:00,
2013-12-04 07:15:00,65.1,63.9,30.06,SSW,211,0.0,0.0,96,0.00,,,0.00,Wunderground v.1.15,2013-12-04 12:15:00,
2013-12-04 07:20:00,65.1,63.9,30.06,SSW,211,0.0,0.0,96,0.00,,,0.00,Wunderground v.1.15,2013-12-04 12:20:00,
2013-12-04 07:25:00,65.1,63.9,30.07,SSW,211,0.0,0.0,96,0.00,,,0.00,Wunderground v.1.15,2013-12-04 12:25:00,
2013-12-04 07:30:00,65.3,64.1,30.07,SSW,211,0.0,0.0,96,0.00,,,0.00,Wunderground v.1.15,2013-12-04 12:30:00,
2013-12-04 07:35:00,65.6,64.7,30.07,SSW,211,0.0,0.0,97,0.00,,,0.00,Wunderground v.1.15,2013-12-04 12:35:00,
2013-12-04 07:40:00,66.0,65.1,30.07,SSW,211,0.0,0.0,97,0.00,,,0.00,Wunderground v.1.15,2013-12-04 12:40:00,
2013-12-04 07:45:00,66.6,65.7,30.08,SSW,211,0.0,0.0,97,0.00,,,0.00,Wunderground v.1.15,2013-12-04 12:45:00,
2013-12-04 07:50:00,67.1,66.2,30.08,SSW,211,0.0,0.0,97,0.00,,,0.00,Wunderground v.1.15,2013-12-04 12:50:00,
2013-12-04 07:55:00,67.5,66.6,30.08,SSW,211,0.0,0.0,97,0.00,,,0.00,Wunderground v.1.15,2013-12-04 12:55:00,
2013-12-04 08:00:00,68.3,67.4,30.08,SSW,211,0.0,0.0,97,0.00,,,0.00,Wunderground v.1.15,2013-12-04 13:00:00,
2013-12-04 08:05:00,68.7,67.8,30.08,SSW,212,0.0,0.0,97,0.00,,,0.00,Wunderground v.1.15,2013-12-04 13:05:00,
2013-12-04 08:10:00,69.0,68.1,30.08,SSW,211,0.0,0.0,97,0.00,,,0.00,Wunderground v.1.15,2013-12-04 13:10:00,
2013-12-04 08:15:00,69.6,68.7,30.08,SSW,211,0.0,0.0,97,0.00,,,0.00,Wunderground v.1.15,2013-12-04 13:15:00,
2013-12-04 08:20:00,70.1,69.2,30.08,SSW,211,0.0,0.0,97,0.00,,,0.00,Wunderground v.1.15,2013-12-04 13:20:00,
2013-12-04 08:25:00,70.8,69.9,30.09,SSW,211,0.0,0.0,97,0.00,,,0.00,Wunderground v.1.15,2013-12-04 13:25:00,
2013-12-04 08:30:00,70.9,69.4,30.09,SSW,212,0.0,0.0,95,0.00,,,0.00,Wunderground v.1.15,2013-12-04 13:30:00,
2013-12-04 08:35:00,70.9,69.4,30.09,SSW,211,0.0,0.0,95,0.00,,,0.00,Wunderground v.1.15,2013-12-04 13:35:00,
2013-12-04 08:40:00,71.3,69.8,30.09,SSW,211,0.0,0.0,95,0.00,,,0.00,Wunderground v.1.15,2013-12-04 13:40:00,
2013-12-04 08:45:00,72.1,70.6,30.09,SW,214,0.0,0.0,95,0.00,,,0.00,Wunderground v.1.15,2013-12-04 13:45:00,
2013-12-04 08:50:00,72.7,70.6,30.09,WSW,253,0.0,0.0,93,0.00,,,0.00,Wunderground v.1.15,2013-12-04 13:50:00,
2013-12-04 08:55:00,73.3,70.8,30.09,WSW,257,0.0,0.0,92,0.00,,,0.00,Wunderground v.1.15,2013-12-04 13:55:00,
2013-12-04 09:00:00,74.0,70.9,30.09,SW,225,0.0,0.0,90,0.00,,,0.00,Wunderground v.1.15,2013-12-04 14:00:00,
2013-12-04 09:05:00,74.5,70.4,30.09,WSW,245,0.0,1.0,87,0.00,,,0.00,Wunderground v.1.15,2013-12-04 14:05:00,
2013-12-04 09:10:00,75.3,70.8,30.10,East,96,0.0,0.0,86,0.00,,,0.00,Wunderground v.1.15,2013-12-04 14:10:00,
2013-12-04 09:15:00,75.9,70.7,30.10,SW,219,0.0,1.0,84,0.00,,,0.00,Wunderground v.1.15,2013-12-04 14:15:00,
2013-12-04 09:20:00,76.4,70.5,30.10,East,97,0.0,0.0,82,0.00,,,0.00,Wunderground v.1.15,2013-12-04 14:20:00,
2013-12-04 09:25:00,77.0,70.4,30.10,SSE,166,0.0,1.0,80,0.00,,,0.00,Wunderground v.1.15,2013-12-04 14:25:00,
2013-12-04 09:30:00,77.4,70.4,30.10,SSE,162,0.0,0.0,79,0.00,,,0.00,Wunderground v.1.15,2013-12-04 14:30:00,
2013-12-04 09:35:00,77.8,70.4,30.10,East,96,0.0,3.0,78,0.00,,,0.00,Wunderground v.1.15,2013-12-04 14:35:00,
2013-12-04 09:40:00,78.0,70.2,30.11,South,174,0.0,0.0,77,0.00,,,0.00,Wunderground v.1.15,2013-12-04 14:40:00,
2013-12-04 09:45:00,78.4,70.2,30.11,NNE,29,0.0,1.0,76,0.00,,,0.00,Wunderground v.1.15,2013-12-04 14:45:00,
2013-12-04 09:50:00,78.9,70.3,30.11,ESE,108,0.0,0.0,75,0.00,,,0.00,Wunderground v.1.15,2013-12-04 14:50:00,
2013-12-04 09:55:00,79.3,70.3,30.11,SSW,212,0.0,2.0,74,0.00,,,0.00,Wunderground v.1.15,2013-12-04 14:55:00,
2013-12-04 10:00:00,79.4,70.0,30.11,SW,217,1.0,2.0,73,0.00,,,0.00,Wunderground v.1.15,2013-12-04 15:00:00,
2013-12-04 10:05:00,79.0,69.6,30.11,SW,218,0.0,2.0,73,0.00,,,0.00,Wunderground v.1.15,2013-12-04 15:05:00,
2013-12-04 10:10:00,79.0,70.0,30.11,South,169,0.0,1.0,74,0.00,,,0.00,Wunderground v.1.15,2013-12-04 15:10:00,
2013-12-04 10:15:00,79.1,70.1,30.11,SW,218,0.0,4.0,74,0.00,,,0.00,Wunderground v.1.15,2013-12-04 15:15:00,
2013-12-04 10:20:00,79.4,70.0,30.11,SW,215,0.0,2.0,73,0.00,,,0.00,Wunderground v.1.15,2013-12-04 15:20:00,
2013-12-04 10:25:00,79.9,70.1,30.11,SW,231,1.0,4.0,72,0.00,,,0.00,Wunderground v.1.15,2013-12-04 15:25:00,
2013-12-04 10:30:00,80.2,69.5,30.11,South,169,0.0,1.0,70,0.00,,,0.00,Wunderground v.1.15,2013-12-04 15:30:00,
2013-12-04 10:35:00,80.5,69.4,30.10,ESE,109,0.0,8.0,69,0.00,,,0.00,Wunderground v.1.15,2013-12-04 15:35:00,
2013-12-04 10:41:00,80.9,69.8,30.10,South,183,2.0,4.0,69,0.00,,,0.00,Wunderground v.1.15,2013-12-04 15:41:00,
2013-12-04 10:46:00,81.1,69.5,30.10,SE,143,0.0,5.0,68,0.00,,,0.00,Wunderground v.1.15,2013-12-04 15:46:00,
2013-12-04 10:51:00,81.0,69.4,30.10,NNE,28,0.0,2.0,68,0.00,,,0.00,Wunderground v.1.15,2013-12-04 15:51:00,
2013-12-04 10:56:00,81.2,69.2,30.10,SSW,198,1.0,6.0,67,0.00,,,0.00,Wunderground v.1.15,2013-12-04 15:56:00,
2013-12-04 11:01:00,81.3,68.9,30.10,ESE,113,4.0,6.0,66,0.00,,,0.00,Wunderground v.1.15,2013-12-04 16:01:00,
2013-12-04 11:06:00,81.4,68.9,30.10,East,95,2.0,8.0,66,0.00,,,0.00,Wunderground v.1.15,2013-12-04 16:06:00,
2013-12-04 11:11:00,81.6,69.1,30.10,SSE,153,0.0,6.0,66,0.00,,,0.00,Wunderground v.1.15,2013-12-04 16:11:00,
2013-12-04 11:16:00,81.7,68.8,30.10,East,101,2.0,9.0,65,0.00,,,0.00,Wunderground v.1.15,2013-12-04 16:16:00,
2013-12-04 11:21:00,81.9,68.5,30.10,North,360,1.0,4.0,64,0.00,,,0.00,Wunderground v.1.15,2013-12-04 16:21:00,
2013-12-04 11:26:00,82.0,68.6,30.10,East,91,0.0,6.0,64,0.00,,,0.00,Wunderground v.1.15,2013-12-04 16:26:00,
2013-12-04 11:31:00,81.9,68.5,30.10,NE,35,2.0,9.0,64,0.00,,,0.00,Wunderground v.1.15,2013-12-04 16:31:00,
2013-12-04 11:36:00,81.8,68.9,30.09,ENE,63,0.0,9.0,65,0.00,,,0.00,Wunderground v.1.15,2013-12-04 16:36:00,
2013-12-04 11:41:00,82.2,68.8,30.09,SW,218,2.0,6.0,64,0.00,,,0.00,Wunderground v.1.15,2013-12-04 16:41:00,
2013-12-04 11:46:00,82.5,69.1,30.09,SW,214,1.0,6.0,64,0.00,,,0.00,Wunderground v.1.15,2013-12-04 16:46:00,
2013-12-04 11:51:00,82.8,69.4,30.09,SSW,195,0.0,4.0,64,0.00,,,0.00,Wunderground v.1.15,2013-12-04 16:51:00,
2013-12-04 11:56:00,83.0,67.7,30.09,East,83,3.0,6.0,60,0.00,,,0.00,Wunderground v.1.15,2013-12-04 16:56:00,
2013-12-04 12:01:00,82.6,69.2,30.08,SW,236,3.0,4.0,64,0.00,,,0.00,Wunderground v.1.15,2013-12-04 17:01:00,
2013-12-04 12:06:00,83.0,69.6,30.08,SSE,167,1.0,6.0,64,0.00,,,0.00,Wunderground v.1.15,2013-12-04 17:06:00,
2013-12-04 12:11:00,83.5,69.1,30.08,South,170,1.0,4.0,62,0.00,,,0.00,Wunderground v.1.15,2013-12-04 17:11:00,
2013-12-04 12:16:00,83.1,68.3,30.08,ESE,118,1.0,4.0,61,0.00,,,0.00,Wunderground v.1.15,2013-12-04 17:16:00,
2013-12-04 12:21:00,82.5,67.2,30.08,SW,235,0.0,4.0,60,0.00,,,0.00,Wunderground v.1.15,2013-12-04 17:21:00,
2013-12-04 12:26:00,82.1,68.7,30.07,NE,54,1.0,4.0,64,0.00,,,0.00,Wunderground v.1.15,2013-12-04 17:26:00,
2013-12-04 12:31:00,81.6,68.2,30.07,SW,221,3.0,3.0,64,0.00,,,0.00,Wunderground v.1.15,2013-12-04 17:31:00,
2013-12-04 12:36:00,81.4,68.1,30.07,South,180,2.0,3.0,64,0.00,,,0.00,Wunderground v.1.15,2013-12-04 17:36:00,
2013-12-04 12:41:00,81.6,68.2,30.07,SW,218,1.0,4.0,64,0.00,,,0.00,Wunderground v.1.15,2013-12-04 17:41:00,
2013-12-04 12:46:00,81.6,67.8,30.07,South,187,0.0,4.0,63,0.00,,,0.00,Wunderground v.1.15,2013-12-04 17:46:00,
2013-12-04 12:51:00,81.4,68.5,30.07,ESE,114,2.0,4.0,65,0.00,,,0.00,Wunderground v.1.15,2013-12-04 17:51:00,
2013-12-04 12:56:00,81.2,68.3,30.07,ENE,62,1.0,6.0,65,0.00,,,0.00,Wunderground v.1.15,2013-12-04 17:56:00,
2013-12-04 13:01:00,80.9,68.0,30.06,ENE,74,3.0,4.0,65,0.00,,,0.00,Wunderground v.1.15,2013-12-04 18:01:00,
2013-12-04 13:06:00,81.0,68.6,30.06,ESE,120,3.0,4.0,66,0.00,,,0.00,Wunderground v.1.15,2013-12-04 18:06:00,
2013-12-04 13:11:00,80.9,68.0,30.06,SSE,164,0.0,2.0,65,0.00,,,0.00,Wunderground v.1.15,2013-12-04 18:11:00,
2013-12-04 13:16:00,80.9,68.0,30.06,NE,51,1.0,6.0,65,0.00,,,0.00,Wunderground v.1.15,2013-12-04 18:16:00,
2013-12-04 13:21:00,80.9,68.9,30.06,SSE,159,0.0,2.0,67,0.00,,,0.00,Wunderground v.1.15,2013-12-04 18:21:00,
2013-12-04 13:26:00,81.0,69.0,30.06,East,89,0.0,3.0,67,0.00,,,0.00,Wunderground v.1.15,2013-12-04 18:26:00,
2013-12-04 13:31:00,80.8,68.8,30.06,South,170,0.0,4.0,67,0.00,,,0.00,Wunderground v.1.15,2013-12-04 18:31:00,
2013-12-04 13:36:00,80.5,68.5,30.05,SSE,152,0.0,5.0,67,0.00,,,0.00,Wunderground v.1.15,2013-12-04 18:36:00,
2013-12-04 13:41:00,80.5,68.5,30.05,WSW,251,0.0,2.0,67,0.00,,,0.00,Wunderground v.1.15,2013-12-04 18:41:00,
2013-12-04 13:46:00,80.5,68.5,30.05,East,91,0.0,3.0,67,0.00,,,0.00,Wunderground v.1.15,2013-12-04 18:46:00,
2013-12-04 13:51:00,80.3,68.3,30.05,SSW,193,0.0,4.0,67,0.00,,,0.00,Wunderground v.1.15,2013-12-04 18:51:00,
2013-12-04 13:57:00,80.3,68.3,30.05,SW,224,0.0,4.0,67,0.00,,,0.00,Wunderground v.1.15,2013-12-04 18:57:00,
2013-12-04 14:02:00,80.2,67.8,30.05,ESE,105,0.0,3.0,66,0.00,,,0.00,Wunderground v.1.15,2013-12-04 19:02:00,
2013-12-04 14:07:00,80.2,67.4,30.05,South,170,0.0,4.0,65,0.00,,,0.00,Wunderground v.1.15,2013-12-04 19:07:00,
2013-12-04 14:12:00,80.3,67.5,30.05,SE,142,1.0,2.0,65,0.00,,,0.00,Wunderground v.1.15,2013-12-04 19:12:00,
2013-12-04 14:17:00,80.5,68.1,30.05,SW,217,1.0,4.0,66,0.00,,,0.00,Wunderground v.1.15,2013-12-04 19:17:00,
2013-12-04 14:22:00,80.8,68.4,30.05,SSE,166,0.0,3.0,66,0.00,,,0.00,Wunderground v.1.15,2013-12-04 19:22:00,
2013-12-04 14:27:00,81.2,68.3,30.05,SE,132,3.0,4.0,65,0.00,,,0.00,Wunderground v.1.15,2013-12-04 19:27:00,
2013-12-04 14:32:00,81.1,68.2,30.04,ESE,115,0.0,2.0,65,0.00,,,0.00,Wunderground v.1.15,2013-12-04 19:32:00,
2013-12-04 14:37:00,80.9,68.0,30.04,ENE,66,0.0,5.0,65,0.00,,,0.00,Wunderground v.1.15,2013-12-04 19:37:00,
2013-12-04 14:42:00,80.8,67.9,30.04,South,191,1.0,4.0,65,0.00,,,0.00,Wunderground v.1.15,2013-12-04 19:42:00,
2013-12-04 14:47:00,80.7,68.3,30.04,East,87,1.0,4.0,66,0.00,,,0.00,Wunderground v.1.15,2013-12-04 19:47:00,
2013-12-04 14:52:00,80.8,67.9,30.04,ESE,119,0.0,2.0,65,0.00,,,0.00,Wunderground v.1.15,2013-12-04 19:52:00,
2013-12-04 14:57:00,81.4,67.1,30.04,SSE,156,0.0,4.0,62,0.00,,,0.00,Wunderground v.1.15,2013-12-04 19:57:00,
2013-12-04 15:02:00,81.9,67.6,30.04,ENE,77,1.0,3.0,62,0.00,,,0.00,Wunderground v.1.15,2013-12-04 20:02:00,
2013-12-04 15:07:00,82.3,68.9,30.04,South,174,0.0,3.0,64,0.00,,,0.00,Wunderground v.1.15,2013-12-04 20:07:00,
2013-12-04 15:12:00,83.1,69.2,30.04,SSE,167,0.0,3.0,63,0.00,,,0.00,Wunderground v.1.15,2013-12-04 20:12:00,
2013-12-04 15:17:00,83.5,68.6,30.04,East,94,4.0,5.0,61,0.00,,,0.00,Wunderground v.1.15,2013-12-04 20:17:00,
2013-12-04 15:22:00,83.4,67.6,30.04,SSW,211,0.0,2.0,59,0.00,,,0.00,Wunderground v.1.15,2013-12-04 20:22:00,
2013-12-04 15:27:00,83.3,67.5,30.04,SSE,162,0.0,3.0,59,0.00,,,0.00,Wunderground v.1.15,2013-12-04 20:27:00,
2013-12-04 15:32:00,83.9,68.5,30.04,SSE,158,0.0,0.0,60,0.00,,,0.00,Wunderground v.1.15,2013-12-04 20:32:00,
2013-12-04 15:37:00,84.3,67.4,30.04,East,95,2.0,4.0,57,0.00,,,0.00,Wunderground v.1.15,2013-12-04 20:37:00,
2013-12-04 15:42:00,83.4,67.6,30.04,NE,47,0.0,2.0,59,0.00,,,0.00,Wunderground v.1.15,2013-12-04 20:42:00,
2013-12-04 15:47:00,83.4,67.1,30.04,West,275,0.0,2.0,58,0.00,,,0.00,Wunderground v.1.15,2013-12-04 20:47:00,
2013-12-04 15:52:00,83.9,67.0,30.04,SSE,148,0.0,1.0,57,0.00,,,0.00,Wunderground v.1.15,2013-12-04 20:52:00,
2013-12-04 15:58:00,84.5,67.6,30.04,South,173,0.0,1.0,57,0.00,,,0.00,Wunderground v.1.15,2013-12-04 20:58:00,
2013-12-04 16:03:00,85.0,68.1,30.04,SSE,166,2.0,2.0,57,0.00,,,0.00,Wunderground v.1.15,2013-12-04 21:03:00,
2013-12-04 16:08:00,85.2,68.8,30.05,East,82,0.0,2.0,58,0.00,,,0.00,Wunderground v.1.15,2013-12-04 21:08:00,
2013-12-04 16:13:00,85.2,68.8,30.05,SSE,149,1.0,1.0,58,0.00,,,0.00,Wunderground v.1.15,2013-12-04 21:13:00,
2013-12-04 16:18:00,84.6,68.2,30.05,East,79,0.0,5.0,58,0.00,,,0.00,Wunderground v.1.15,2013-12-04 21:18:00,
2013-12-04 16:23:00,83.8,68.4,30.05,West,277,0.0,2.0,60,0.00,,,0.00,Wunderground v.1.15,2013-12-04 21:23:00,
2013-12-04 16:28:00,83.7,66.8,30.05,ESE,114,1.0,2.0,57,0.00,,,0.00,Wunderground v.1.15,2013-12-04 21:28:00,
2013-12-04 16:33:00,83.7,67.8,30.05,SSE,163,0.0,1.0,59,0.00,,,0.00,Wunderground v.1.15,2013-12-04 21:33:00,
2013-12-04 16:38:00,84.3,67.9,30.05,South,179,0.0,1.0,58,0.00,,,0.00,Wunderground v.1.15,2013-12-04 21:38:00,
2013-12-04 16:43:00,83.9,67.5,30.05,ENE,75,1.0,3.0,58,0.00,,,0.00,Wunderground v.1.15,2013-12-04 21:43:00,
2013-12-04 16:48:00,83.0,67.7,30.05,East,83,0.0,3.0,60,0.00,,,0.00,Wunderground v.1.15,2013-12-04 21:48:00,
2013-12-04 16:54:00,82.5,67.2,30.05,SE,132,0.0,3.0,60,0.00,,,0.00,Wunderground v.1.15,2013-12-04 21:54:00,
2013-12-04 16:59:00,82.1,67.3,30.06,ESE,109,4.0,4.0,61,0.00,,,0.00,Wunderground v.1.15,2013-12-04 21:59:00,
2013-12-04 17:04:00,81.7,67.4,30.06,ESE,114,0.0,1.0,62,0.00,,,0.00,Wunderground v.1.15,2013-12-04 22:04:00,
2013-12-04 17:09:00,81.3,67.5,30.06,East,94,0.0,3.0,63,0.00,,,0.00,Wunderground v.1.15,2013-12-04 22:09:00,
2013-12-04 17:14:00,80.8,67.5,30.06,ESE,110,0.0,1.0,64,0.00,,,0.00,Wunderground v.1.15,2013-12-04 22:14:00,
2013-12-04 17:19:00,79.9,67.1,30.06,ESE,107,1.0,3.0,65,0.00,,,0.00,Wunderground v.1.15,2013-12-04 22:19:00,
2013-12-04 17:24:00,79.1,67.2,30.07,ESE,103,0.0,2.0,67,0.00,,,0.00,Wunderground v.1.15,2013-12-04 22:24:00,
2013-12-04 17:29:00,78.4,67.0,30.07,East,98,0.0,2.0,68,0.00,,,0.00,Wunderground v.1.15,2013-12-04 22:29:00,
2013-12-04 17:34:00,77.7,66.7,30.06,ESE,114,0.0,2.0,69,0.00,,,0.00,Wunderground v.1.15,2013-12-04 22:34:00,
2013-12-04 17:39:00,77.2,66.2,30.07,East,91,0.0,3.0,69,0.00,,,0.00,Wunderground v.1.15,2013-12-04 22:39:00,
2013-12-04 17:44:00,76.8,66.3,30.07,ESE,117,0.0,0.0,70,0.00,,,0.00,Wunderground v.1.15,2013-12-04 22:44:00,
2013-12-04 17:49:00,76.3,66.2,30.07,East,92,0.0,0.0,71,0.00,,,0.00,Wunderground v.1.15,2013-12-04 22:49:00,
2013-12-04 17:54:00,75.9,66.2,30.07,East,91,0.0,0.0,72,0.00,,,0.00,Wunderground v.1.15,2013-12-04 22:54:00,
2013-12-04 17:59:00,75.6,66.3,30.07,East,91,0.0,0.0,73,0.00,,,0.00,Wunderground v.1.15,2013-12-04 22:59:00,
2013-12-04 18:05:00,75.3,66.4,30.08,East,93,0.0,0.0,74,0.00,,,0.00,Wunderground v.1.15,2013-12-04 23:05:00,
2013-12-04 18:10:00,75.1,66.6,30.08,East,93,0.0,0.0,75,0.00,,,0.00,Wunderground v.1.15,2013-12-04 23:10:00,
2013-12-04 18:15:00,74.8,66.3,30.08,East,93,0.0,0.0,75,0.00,,,0.00,Wunderground v.1.15,2013-12-04 23:15:00,
2013-12-04 18:20:00,74.5,66.4,30.08,East,93,0.0,0.0,76,0.00,,,0.00,Wunderground v.1.15,2013-12-04 23:20:00,
2013-12-04 18:25:00,74.3,66.2,30.08,East,93,0.0,0.0,76,0.00,,,0.00,Wunderground v.1.15,2013-12-04 23:25:00,
2013-12-04 18:30:00,74.0,66.3,30.08,East,93,0.0,0.0,77,0.00,,,0.00,Wunderground v.1.15,2013-12-04 23:30:00,
2013-12-04 18:35:00,73.8,66.1,30.08,East,93,0.0,0.0,77,0.00,,,0.00,Wunderground v.1.15,2013-12-04 23:35:00,
2013-12-04 18:40:00,73.7,66.4,30.08,East,93,0.0,0.0,78,0.00,,,0.00,Wunderground v.1.15,2013-12-04 23:40:00,
2013-12-04 18:45:00,73.5,66.2,30.09,East,93,0.0,0.0,78,0.00,,,0.00,Wunderground v.1.15,2013-12-04 23:45:00,
2013-12-04 18:50:00,73.2,66.3,30.09,East,93,0.0,0.0,79,0.00,,,0.00,Wunderground v.1.15,2013-12-04 23:50:00,
2013-12-04 18:55:00,72.9,66.4,30.09,East,93,0.0,0.0,80,0.00,,,0.00,Wunderground v.1.15,2013-12-04 23:55:00,
2013-12-04 19:00:00,72.6,66.1,30.09,East,93,0.0,0.0,80,0.00,,,0.00,Wunderground v.1.15,2013-12-05 00:00:00,
2013-12-04 19:05:00,72.4,66.2,30.09,East,93,0.0,0.0,81,0.00,,,0.00,Wunderground v.1.15,2013-12-05 00:05:00,
2013-12-04 19:10:00,72.3,66.5,30.09,East,93,0.0,0.0,82,0.00,,,0.00,Wunderground v.1.15,2013-12-05 00:10:00,
2013-12-04 19:15:00,72.0,66.2,30.09,East,93,0.0,0.0,82,0.00,,,0.00,Wunderground v.1.15,2013-12-05 00:15:00,
2013-12-04 19:20:00,71.8,66.4,30.10,East,93,0.0,0.0,83,0.00,,,0.00,Wunderground v.1.15,2013-12-05 00:20:00,
2013-12-04 19:25:00,71.6,66.2,30.10,East,93,0.0,0.0,83,0.00,,,0.00,Wunderground v.1.15,2013-12-05 00:25:00,
2013-12-04 19:30:00,71.6,66.5,30.10,East,94,0.0,0.0,84,0.00,,,0.00,Wunderground v.1.15,2013-12-05 00:30:00,
2013-12-04 19:35:00,71.2,66.1,30.10,East,93,0.0,0.0,84,0.00,,,0.00,Wunderground v.1.15,2013-12-05 00:35:00,
2013-12-04 19:40:00,71.1,66.4,30.10,East,93,0.0,0.0,85,0.00,,,0.00,Wunderground v.1.15,2013-12-05 00:40:00,
2013-12-04 19:45:00,71.0,66.6,30.10,East,93,0.0,0.0,86,0.00,,,0.00,Wunderground v.1.15,2013-12-05 00:45:00,
2013-12-04 19:50:00,71.1,66.7,30.10,East,93,0.0,0.0,86,0.00,,,0.00,Wunderground v.1.15,2013-12-05 00:50:00,
2013-12-04 19:55:00,71.1,66.4,30.10,East,93,0.0,0.0,85,0.00,,,0.00,Wunderground v.1.15,2013-12-05 00:55:00,
2013-12-04 20:01:00,70.8,66.1,30.10,East,93,0.0,0.0,85,0.00,,,0.00,Wunderground v.1.15,2013-12-05 01:01:00,
2013-12-04 20:06:00,70.6,66.2,30.10,East,93,0.0,0.0,86,0.00,,,0.00,Wunderground v.1.15,2013-12-05 01:06:00,
2013-12-04 20:11:00,70.5,66.4,30.10,East,93,0.0,0.0,87,0.00,,,0.00,Wunderground v.1.15,2013-12-05 01:11:00,
2013-12-04 20:16:00,70.4,66.3,30.10,East,93,0.0,0.0,87,0.00,,,0.00,Wunderground v.1.15,2013-12-05 01:16:00,
2013-12-04 20:21:00,70.3,66.2,30.10,East,94,0.0,0.0,87,0.00,,,0.00,Wunderground v.1.15,2013-12-05 01:21:00,
2013-12-04 20:26:00,70.1,66.0,30.10,East,93,0.0,0.0,87,0.00,,,0.00,Wunderground v.1.15,2013-12-05 01:26:00,
2013-12-04 20:31:00,70.1,66.4,30.10,East,93,0.0,0.0,88,0.00,,,0.00,Wunderground v.1.15,2013-12-05 01:31:00,
2013-12-04 20:36:00,69.8,65.8,30.10,East,93,0.0,0.0,87,0.00,,,0.00,Wunderground v.1.15,2013-12-05 01:36:00,
2013-12-04 20:41:00,69.7,66.0,30.10,East,93,0.0,0.0,88,0.00,,,0.00,Wunderground v.1.15,2013-12-05 01:41:00,
2013-12-04 20:46:00,69.9,66.5,30.10,East,93,0.0,0.0,89,0.00,,,0.00,Wunderground v.1.15,2013-12-05 01:46:00,
2013-12-04 20:51:00,70.1,66.7,30.11,East,93,0.0,0.0,89,0.00,,,0.00,Wunderground v.1.15,2013-12-05 01:51:00,
2013-12-04 20:56:00,70.1,66.7,30.11,East,93,0.0,0.0,89,0.00,,,0.00,Wunderground v.1.15,2013-12-05 01:56:00,
2013-12-04 21:01:00,70.1,66.7,30.11,East,93,0.0,0.0,89,0.00,,,0.00,Wunderground v.1.15,2013-12-05 02:01:00,
2013-12-04 21:06:00,70.0,66.6,30.11,East,93,0.0,0.0,89,0.00,,,0.00,Wunderground v.1.15,2013-12-05 02:06:00,
2013-12-04 21:11:00,69.9,66.5,30.11,East,93,0.0,0.0,89,0.00,,,0.00,Wunderground v.1.15,2013-12-05 02:11:00,
2013-12-04 21:16:00,69.7,66.3,30.11,East,93,0.0,0.0,89,0.00,,,0.00,Wunderground v.1.15,2013-12-05 02:16:00,
2013-12-04 21:21:00,69.7,66.6,30.11,East,93,0.0,0.0,90,0.00,,,0.00,Wunderground v.1.15,2013-12-05 02:21:00,
2013-12-04 21:26:00,69.8,66.7,30.11,East,94,0.0,0.0,90,0.00,,,0.00,Wunderground v.1.15,2013-12-05 02:26:00,
2013-12-04 21:31:00,69.7,66.6,30.11,East,93,0.0,0.0,90,0.00,,,0.00,Wunderground v.1.15,2013-12-05 02:31:00,
2013-12-04 21:36:00,69.7,66.6,30.11,East,93,0.0,0.0,90,0.00,,,0.00,Wunderground v.1.15,2013-12-05 02:36:00,
2013-12-04 21:41:00,69.4,66.3,30.11,East,93,0.0,0.0,90,0.00,,,0.00,Wunderground v.1.15,2013-12-05 02:41:00,
2013-12-04 21:46:00,69.2,66.1,30.11,East,93,0.0,0.0,90,0.00,,,0.00,Wunderground v.1.15,2013-12-05 02:46:00,
2013-12-04 21:51:00,69.0,66.3,30.11,East,93,0.0,0.0,91,0.00,,,0.00,Wunderground v.1.15,2013-12-05 02:51:00,
2013-12-04 21:57:00,69.2,66.5,30.11,East,93,0.0,0.0,91,0.00,,,0.00,Wunderground v.1.15,2013-12-05 02:57:00,
2013-12-04 22:02:00,69.2,66.5,30.11,East,93,0.0,0.0,91,0.00,,,0.00,Wunderground v.1.15,2013-12-05 03:02:00,
2013-12-04 22:07:00,69.0,66.3,30.11,East,94,0.0,0.0,91,0.00,,,0.00,Wunderground v.1.15,2013-12-05 03:07:00,
2013-12-04 22:12:00,69.0,66.6,30.11,East,93,0.0,0.0,92,0.00,,,0.00,Wunderground v.1.15,2013-12-05 03:12:00,
2013-12-04 22:17:00,68.9,66.2,30.11,East,93,0.0,0.0,91,0.00,,,0.00,Wunderground v.1.15,2013-12-05 03:17:00,
2013-12-04 22:22:00,68.7,66.3,30.11,East,93,0.0,0.0,92,0.00,,,0.00,Wunderground v.1.15,2013-12-05 03:22:00,
2013-12-04 22:27:00,68.6,66.2,30.11,East,93,0.0,0.0,92,0.00,,,0.00,Wunderground v.1.15,2013-12-05 03:27:00,
2013-12-04 22:32:00,68.4,66.0,30.11,East,93,0.0,0.0,92,0.00,,,0.00,Wunderground v.1.15,2013-12-05 03:32:00,
2013-12-04 22:38:00,68.4,66.0,30.11,East,94,0.0,0.0,92,0.00,,,0.00,Wunderground v.1.15,2013-12-05 03:38:00,
2013-12-04 22:43:00,68.1,65.7,30.11,East,93,0.0,0.0,92,0.00,,,0.00,Wunderground v.1.15,2013-12-05 03:43:00,
2013-12-04 22:49:00,68.0,65.6,30.11,East,93,0.0,0.0,92,0.00,,,0.00,Wunderground v.1.15,2013-12-05 03:49:00,
2013-12-04 22:54:00,68.0,65.9,30.11,East,93,0.0,0.0,93,0.00,,,0.00,Wunderground v.1.15,2013-12-05 03:54:00,
2013-12-04 22:59:00,68.0,65.9,30.11,East,93,0.0,0.0,93,0.00,,,0.00,Wunderground v.1.15,2013-12-05 03:59:00,
2013-12-04 23:04:00,68.0,65.9,30.11,East,93,0.0,0.0,93,0.00,,,0.00,Wunderground v.1.15,2013-12-05 04:04:00,
2013-12-04 23:09:00,68.0,65.9,30.11,East,94,0.0,0.0,93,0.00,,,0.00,Wunderground v.1.15,2013-12-05 04:09:00,
2013-12-04 23:14:00,68.1,66.0,30.11,East,93,0.0,0.0,93,0.00,,,0.00,Wunderground v.1.15,2013-12-05 04:14:00,
2013-12-04 23:19:00,68.0,65.9,30.11,East,94,0.0,0.0,93,0.00,,,0.00,Wunderground v.1.15,2013-12-05 04:19:00,
2013-12-04 23:24:00,68.0,65.9,30.11,East,93,0.0,0.0,93,0.00,,,0.00,Wunderground v.1.15,2013-12-05 04:24:00,
2013-12-04 23:29:00,67.9,65.8,30.11,East,93,0.0,0.0,93,0.00,,,0.00,Wunderground v.1.15,2013-12-05 04:29:00,
2013-12-04 23:34:00,67.8,65.7,30.11,East,93,0.0,0.0,93,0.00,,,0.00,Wunderground v.1.15,2013-12-05 04:34:00,
2013-12-04 23:39:00,67.8,66.0,30.11,East,93,0.0,0.0,94,0.00,,,0.00,Wunderground v.1.15,2013-12-05 04:39:00,
2013-12-04 23:44:00,67.9,66.1,30.11,East,93,0.0,0.0,94,0.00,,,0.00,Wunderground v.1.15,2013-12-05 04:44:00,
2013-12-04 23:49:00,67.7,65.9,30.11,East,93,0.0,0.0,94,0.00,,,0.00,Wunderground v.1.15,2013-12-05 04:49:00,
2013-12-04 23:54:00,67.5,65.7,30.11,East,93,0.0,0.0,94,0.00,,,0.00,Wunderground v.1.15,2013-12-05 04:54:00,
2013-12-04 23:59:00,67.4,65.6,30.11,East,93,0.0,0.0,94,0.00,,,0.00,Wunderground v.1.15,2013-12-05 04:59:00,